EGVO - Odiham
Distance from station: E 5mi, 14km
Updated: 10/18/2017 3:50pm
Mist, Mostly cloudy
Mist, Mostly cloudy
 Wind from S
Wind: S 5 mph , 7 km/h
Temperature: 57°F , 14°C
Dew Point: 57°F , 14°C
Humidity: 100%
Barometer: 29.8 inHg , 1009 hPa
Summary: Mist
Clouds: Mostly Cloudy
Visibility: 2 miles , 3 km
Cloud details: Few Clouds 400 ft
Mostly Cloudy 1300 ft
2017/10/18 22:50 EGVO 182250Z 18004KT 3000 BR FEW004 BKN013 14/14 Q1009 YLO1